Latest Weather Observations for Parndana

IDS60801

Issued at 11:02 pm CDT Tuesday 31 March 2015 (issued every 30 minutes, with the page automatically refreshed every 10 minutes)

About weather observations | Map of weather stations | Latest weather observations for SA | Other Formats
Station Details ID: 022843 Name: PARNDANA CFS AWS Lat: -35.79 Lon: 137.25 Height: 165.0 m
Data from the previous 72 hours. | See also: Recent months at Parndana
Date/Time
CDT
Temp
°C
App
Temp
°C
Dew
Point
Rel
Hum
%
Delta-T
°C
Wind Press
QNH
hPa
Press
MSL
hPa
Rain
since 9 am
mm
Dir
 
Spd
km/h
Gust
km/h
Spd
kts
Gust
kts
31/11:00pm 19.4 17.0 7.2 45 6.2 N 9 11 5 6 - - 0.0
31/10:30pm 20.1 17.7 7.1 43 6.7 N 9 11 5 6 - - 0.0
31/10:00pm 20.0 17.7 7.4 44 6.5 NNE 9 9 5 5 - - 0.0
31/09:30pm 20.5 18.1 7.2 42 6.8 N 9 9 5 5 - - 0.0
31/09:00pm 20.8 18.5 7.4 42 6.9 N 9 11 5 6 - - 0.0
31/08:30pm 21.6 19.9 7.4 40 7.4 N 6 9 3 5 - - 0.0
31/08:00pm 21.3 18.9 7.2 40 7.3 NNE 9 9 5 5 - - 0.0
31/07:30pm 22.3 20.2 8.1 40 7.5 NNE 9 13 5 7 - - 0.0
31/07:00pm 23.2 21.1 8.1 38 8.0 NNE 9 13 5 7 - - 0.0
31/06:30pm 24.8 22.6 7.9 34 9.0 NNE 9 11 5 6 - - 0.0
31/06:00pm 25.9 23.2 7.5 31 9.8 N 11 15 6 8 - - 0.0
31/05:30pm 26.5 23.1 7.5 30 10.2 NNW 15 20 8 11 - - 0.0
31/05:00pm 26.3 22.5 7.4 30 10.1 NNW 17 20 9 11 - - 0.0
31/04:30pm 27.0 22.6 6.4 27 10.9 N 19 26 10 14 - - 0.0
31/04:00pm 27.7 23.5 7.5 28 10.9 N 19 24 10 13 - - 0.0
31/03:30pm 28.4 24.4 8.1 28 11.1 NNW 19 26 10 14 - - 0.0
31/03:00pm 27.8 22.9 7.1 27 11.1 NNW 22 30 12 16 - - 0.0
31/02:30pm 28.0 23.8 7.3 27 11.2 N 19 28 10 15 - - 0.0
31/02:00pm 28.2 23.9 8.0 28 11.0 N 20 28 11 15 - - 0.0
31/01:30pm 26.9 21.9 7.9 30 10.3 NNW 24 33 13 18 - - 0.0
31/01:00pm 26.2 21.7 8.7 33 9.6 NNW 22 30 12 16 - - 0.0
31/12:30pm 25.6 21.0 8.1 33 9.4 N 22 32 12 17 - - 0.0
31/12:00pm 25.6 20.6 9.4 36 8.9 N 26 33 14 18 - - 0.0
31/11:30am 25.1 21.5 10.6 40 8.1 N 20 30 11 16 - - 0.0
31/11:00am 24.1 19.8 10.7 43 7.5 N 24 32 13 17 - - 0.0
31/10:30am 22.9 19.8 12.2 51 6.1 N 20 30 11 16 - - 0.0
31/10:00am 20.1 18.4 14.7 71 3.2 NNE 17 20 9 11 - - 0.0
31/09:30am 18.0 16.6 14.5 80 2.0 NNE 15 22 8 12 - - 0.0
31/09:00am 16.9 15.9 14.7 87 1.3 NNE 13 20 7 11 - - 0.2
31/08:30am 15.1 14.8 14.3 95 0.5 NE 9 11 5 6 - - 0.2
31/08:00am 13.6 12.5 13.0 96 0.3 NE 11 15 6 8 - - 0.2
31/07:30am 13.0 11.7 12.5 97 0.3 NE 11 13 6 7 - - 0.2
31/07:00am 12.9 11.6 12.4 97 0.3 NE 11 15 6 8 - - 0.2
31/06:30am 12.9 12.0 12.6 98 0.2 NE 9 11 5 6 - - 0.2
31/06:00am 12.6 11.6 12.3 98 0.2 NE 9 11 5 6 - - 0.0
31/05:30am 12.6 11.6 12.3 98 0.2 NE 9 9 5 5 - - 0.0
31/05:00am 12.3 11.6 12.0 98 0.2 ENE 7 9 4 5 - - 0.0
31/04:30am 11.1 10.2 10.8 98 0.2 ENE 6 6 3 3 - - 0.0
31/04:00am 12.3 11.8 12.0 98 0.2 ENE 6 7 3 4 - - 0.0
31/03:30am 12.6 12.2 12.3 98 0.2 ENE 6 9 3 5 - - 0.0
31/03:00am 10.8 10.5 10.0 95 0.4 E 2 2 1 1 - - 0.0
31/02:30am 11.9 11.6 11.6 98 0.2 E 4 6 2 3 - - 0.0
31/02:00am 11.9 11.6 11.4 97 0.3 E 4 4 2 2 - - 0.0
31/01:30am 12.5 11.4 12.0 97 0.3 E 9 9 5 5 - - 0.0
31/01:00am 12.9 12.3 12.4 97 0.3 ENE 7 9 4 5 - - 0.0
31/12:30am 13.1 12.6 12.6 97 0.3 E 7 9 4 5 - - 0.0
31/12:00am 13.2 12.9 12.7 97 0.3 ENE 6 7 3 4 - - 0.0
 
Date/Time
CDT
Temp
°C
App
Temp
°C
Dew
Point
Rel
Hum
%
Delta-T
°C
Wind Press
QNH
hPa
Press
MSL
hPa
Rain
since 9 am
mm
Dir
 
Spd
km/h
Gust
km/h
Spd
kts
Gust
kts
30/11:30pm 13.2 12.9 12.7 97 0.3 E 6 6 3 3 - - 0.0
30/11:00pm 13.2 12.9 12.6 96 0.3 E 6 6 3 3 - - 0.0
30/10:30pm 13.9 13.6 13.3 96 0.3 E 7 9 4 5 - - 0.0
30/10:00pm 14.2 13.3 13.6 96 0.3 ESE 11 13 6 7 - - 0.0
30/09:30pm 13.3 12.0 12.4 94 0.5 ESE 11 13 6 7 - - 0.0
30/09:00pm 13.4 11.8 11.6 89 1.0 ESE 11 13 6 7 - - 0.0
30/08:30pm 15.0 14.1 12.5 85 1.4 ESE 9 11 5 6 - - 0.0
30/08:00pm 14.8 13.6 10.4 75 2.3 SE 7 9 4 5 - - 0.0
30/07:30pm 16.8 15.4 10.9 68 3.2 SSE 9 11 5 6 - - 0.0
30/07:00pm 18.6 16.7 11.7 64 3.8 S 13 19 7 10 - - 0.0
30/06:30pm 19.9 17.6 11.9 60 4.5 S 15 19 8 10 - - 0.0
30/06:00pm 20.4 17.8 11.9 58 4.8 S 17 22 9 12 - - 0.0
30/05:30pm 21.1 18.2 12.3 57 5.0 S 19 28 10 15 - - 0.0
30/05:00pm 21.9 18.8 12.2 54 5.5 S 20 26 11 14 - - 0.0
30/04:30pm 22.9 19.9 12.5 52 6.0 S 20 30 11 16 - - 0.0
30/04:00pm 23.6 21.4 13.2 52 6.1 S 17 24 9 13 - - 0.0
30/03:30pm 24.5 22.1 12.8 48 6.8 SSE 17 26 9 14 - - 0.0
30/03:00pm 24.2 22.5 7.4 34 8.9 WSW 6 9 3 5 - - 0.0
30/02:30pm 24.2 21.9 7.4 34 8.9 N 9 20 5 11 - - 0.0
30/02:00pm 23.8 21.6 9.4 40 7.9 W 11 20 6 11 - - 0.0
30/01:30pm 24.1 23.3 9.7 40 7.9 N 4 7 2 4 - - 0.0
30/01:00pm 22.9 21.4 9.3 42 7.4 NNW 7 19 4 10 - - 0.0
30/12:30pm 21.9 20.7 9.4 45 6.8 WNW 6 9 3 5 - - 0.0
30/12:00pm 21.2 20.2 10.4 50 5.9 W 6 11 3 6 - - 0.0
30/11:30am 20.1 19.1 11.1 56 5.0 NW 7 11 4 6 - - 0.0
30/11:00am 19.7 19.1 11.7 60 4.5 NNW 6 11 3 6 - - 0.0
30/10:30am 18.3 18.8 14.0 76 2.5 NE 4 7 2 4 - - 0.0
30/10:00am 16.8 18.0 16.0 95 0.5 NNE 4 6 2 3 - - 0.0
30/09:30am 15.4 16.7 15.1 98 0.2 WNW 2 2 1 1 - - 0.0
30/09:00am 14.2 15.5 14.0 99 0.1 CALM 0 0 0 0 - - 0.0
30/08:30am 11.3 11.7 11.1 99 0.1 CALM 0 0 0 0 - - 0.0
30/08:00am 9.6 8.8 9.5 99 0.1 NNW 4 4 2 2 - - 0.0
30/07:30am 7.9 7.3 7.6 98 0.1 CALM 0 0 0 0 - - 0.0
30/07:00am 11.2 11.1 10.9 98 0.2 S 2 2 1 1 - - 0.0
30/06:30am 12.6 12.6 12.4 99 0.1 S 4 4 2 2 - - 0.0
30/06:00am 11.1 10.1 10.9 99 0.1 SSW 7 9 4 5 - - 0.0
30/05:30am 9.5 7.6 9.2 98 0.1 SW 9 9 5 5 - - 0.0
30/05:00am 10.1 8.8 10.0 99 0.1 WSW 7 9 4 5 - - 0.0
30/04:30am 8.8 7.1 8.5 98 0.1 SW 7 7 4 4 - - 0.0
30/04:00am 10.1 9.0 9.8 98 0.2 SSW 6 6 3 3 - - 0.0
30/03:30am 11.2 10.7 10.9 98 0.2 W 4 6 2 3 - - 0.0
30/03:00am 10.9 11.1 10.6 98 0.2 CALM 0 0 0 0 - - 0.0
30/02:30am 11.8 11.5 11.5 98 0.2 WNW 4 4 2 2 - - 0.0
30/02:00am 10.1 9.3 9.8 98 0.2 WNW 4 6 2 3 - - 0.0
30/01:30am 10.7 10.1 10.4 98 0.2 N 4 4 2 2 - - 0.0
30/01:00am 10.8 10.1 10.2 96 0.3 SW 4 4 2 2 - - 0.0
30/12:30am 10.6 9.5 10.1 97 0.3 SW 6 6 3 3 - - 0.0
30/12:00am 11.2 10.7 10.7 97 0.3 SW 4 6 2 3 - - 0.0
 
Date/Time
CDT
Temp
°C
App
Temp
°C
Dew
Point
Rel
Hum
%
Delta-T
°C
Wind Press
QNH
hPa
Press
MSL
hPa
Rain
since 9 am
mm
Dir
 
Spd
km/h
Gust
km/h
Spd
kts
Gust
kts
29/11:30pm 11.1 10.9 10.6 97 0.3 SSW 2 6 1 3 - - 0.0
29/11:00pm 12.8 13.5 12.3 97 0.3 CALM 0 0 0 0 - - 0.0
29/10:30pm 13.1 13.9 12.5 96 0.3 CALM 0 0 0 0 - - 0.0
29/10:00pm 13.5 14.0 12.7 95 0.4 SSE 2 4 1 2 - - 0.0
29/09:30pm 13.4 12.9 12.5 94 0.5 SSE 7 7 4 4 - - 0.0
29/09:00pm 13.8 13.2 12.4 91 0.8 S 7 7 4 4 - - 0.0
29/08:30pm 14.5 13.9 12.4 87 1.2 S 7 9 4 5 - - 0.0
29/08:00pm 15.6 14.7 12.5 82 1.7 S 9 13 5 7 - - 0.0
29/07:30pm 16.9 15.6 12.4 75 2.5 S 11 17 6 9 - - 0.0
29/07:00pm 18.2 16.2 12.6 70 3.1 S 15 17 8 9 - - 0.0
29/06:30pm 18.9 17.5 12.2 65 3.8 S 11 15 6 8 - - 0.0
29/06:00pm 19.5 18.0 12.0 62 4.2 S 11 17 6 9 - - 0.0
29/05:30pm 19.6 18.7 12.6 64 4.0 SSW 9 13 5 7 - - 0.0
29/05:00pm 19.8 18.1 12.6 63 4.1 SW 13 19 7 10 - - 0.0
29/04:30pm 20.8 19.9 12.5 59 4.7 SSW 9 15 5 8 - - 0.0
29/04:00pm 22.4 20.1 11.8 51 6.0 NW 15 24 8 13 - - 0.0
29/03:30pm 22.5 22.0 12.2 52 5.9 WSW 6 13 3 7 - - 0.0
29/03:00pm 21.4 19.1 10.6 50 5.9 W 13 19 7 10 - - 0.0
29/02:30pm 22.4 21.7 12.1 52 5.9 NW 7 15 4 8 - - 0.0
29/02:00pm 21.4 19.8 11.4 53 5.6 NW 11 19 6 10 - - 0.0
29/01:30pm 20.6 19.6 11.0 54 5.3 WNW 7 17 4 9 - - 0.0
29/01:00pm 20.1 18.4 11.3 57 4.9 NNW 11 17 6 9 - - 0.0
29/12:30pm 19.6 17.3 11.6 60 4.4 NW 15 24 8 13 - - 0.0
29/12:00pm 19.4 17.9 11.9 62 4.2 NW 11 15 6 8 - - 0.0
29/11:30am 18.8 17.8 12.3 66 3.6 NW 9 13 5 7 - - 0.0
29/11:00am 18.3 16.7 12.7 70 3.2 NW 13 17 7 9 - - 0.0
29/10:30am 18.0 16.8 12.7 71 3.0 NW 11 17 6 9 - - 0.0
29/10:00am 17.1 16.6 12.8 76 2.4 WNW 7 9 4 5 - - 0.0
29/09:30am 16.1 16.3 13.0 82 1.7 WNW 4 6 2 3 - - 0.0
29/09:00am 15.0 15.4 13.7 92 0.7 NNW 4 6 2 3 - - 0.0
29/08:30am 13.6 13.7 12.8 95 0.4 NNW 4 6 2 3 - - 0.0
29/08:00am 12.1 11.4 11.3 95 0.4 NNW 6 6 3 3 - - 0.0
29/07:30am 10.8 9.8 10.2 96 0.3 NNW 6 7 3 4 - - 0.0
29/07:00am 10.0 9.1 9.2 95 0.4 NNW 4 6 2 3 - - 0.0
29/06:30am 10.9 9.6 10.1 95 0.4 NNW 7 7 4 4 - - 0.0
29/06:00am 11.3 10.4 10.8 97 0.3 NW 6 6 3 3 - - 0.0
29/05:30am 12.1 12.6 11.6 97 0.3 CALM 0 2 0 1 - - 0.0
29/05:00am 10.8 10.2 10.3 97 0.3 SSW 4 4 2 2 - - 0.0
29/04:30am 10.3 9.5 9.7 96 0.3 SW 4 6 2 3 - - 0.0
29/04:00am 9.8 8.8 8.9 94 0.4 W 4 6 2 3 - - 0.0
29/03:30am 11.7 11.2 10.6 93 0.6 N 4 4 2 2 - - 0.0
29/03:00am 12.2 11.7 10.6 90 0.8 N 4 4 2 2 - - 0.0
29/02:30am 12.6 12.2 11.0 90 0.8 N 4 6 2 3 - - 0.0
29/02:00am 13.1 12.3 11.0 87 1.1 NNW 6 6 3 3 - - 0.0
29/01:30am 12.0 10.9 10.1 88 1.0 NNW 6 6 3 3 - - 0.0
29/01:00am 12.2 10.7 10.4 89 0.9 NW 9 11 5 6 - - 0.0
29/12:30am 11.5 9.9 10.1 91 0.7 NW 9 11 5 6 - - 0.0
29/12:00am 11.7 10.5 10.4 92 0.7 NW 7 9 4 5 - - 0.0
 
Date/Time
CDT
Temp
°C
App
Temp
°C
Dew
Point
Rel
Hum
%
Delta-T
°C
Wind Press
QNH
hPa
Press
MSL
hPa
Rain
since 9 am
mm
Dir
 
Spd
km/h
Gust
km/h
Spd
kts
Gust
kts
28/11:30pm 11.2 10.1 10.1 93 0.6 W 6 6 3 3 - - 0.0

Other Formats:

Comma delimited format used in spreadsheet applications
http://www.bom.gov.au/fwo/IDS60801/IDS60801.94807.axf

JavaScript Object Notation format (JSON) in row-major order
http://www.bom.gov.au/fwo/IDS60801/IDS60801.94807.json